createdAt,value
2019-02-18T00:00:27.579Z,75.42
2019-02-18T00:01:37.078Z,75.71
2019-02-18T00:02:47.027Z,75.71
2019-02-18T00:03:56.984Z,75.52
2019-02-18T00:05:06.444Z,75.9
2019-02-18T00:06:16.139Z,76
2019-02-18T00:07:26.088Z,76.09
2019-02-18T00:08:35.527Z,75.71
2019-02-18T00:09:45.248Z,75.9
2019-02-18T00:10:54.691Z,75.71
2019-02-18T00:12:04.632Z,75.71
2019-02-18T00:13:14.578Z,76
2019-02-18T00:14:23.792Z,75.62
2019-02-18T00:15:33.230Z,75.9
2019-02-18T00:16:42.711Z,75.62
2019-02-18T00:17:52.661Z,75.52
2019-02-18T00:19:02.409Z,75.9
2019-02-18T00:20:12.102Z,76.09
2019-02-18T00:21:21.290Z,76
2019-02-18T00:22:31.227Z,75.9
2019-02-18T00:23:40.917Z,75.71
2019-02-18T00:24:50.109Z,75.9
2019-02-18T00:25:59.546Z,75.71
2019-02-18T00:27:09.000Z,76.09
2019-02-18T00:28:18.705Z,75.9
2019-02-18T00:29:28.387Z,75.71
2019-02-18T00:30:38.086Z,75.71
2019-02-18T00:31:48.039Z,76.09
2019-02-18T00:32:57.756Z,75.52
2019-02-18T00:34:07.488Z,75.62
2019-02-18T00:35:17.441Z,75.81
2019-02-18T00:36:26.878Z,76.67
2019-02-18T00:37:36.808Z,76.48
2019-02-18T00:38:46.751Z,76.48
2019-02-18T00:39:55.939Z,76.48
2019-02-18T00:41:05.937Z,76.67
2019-02-18T00:42:15.633Z,76.96
2019-02-18T00:43:25.346Z,76.57
2019-02-18T00:44:35.323Z,76.77
2019-02-18T00:45:45.272Z,76.67
2019-02-18T00:46:54.957Z,77.25
2019-02-18T00:48:04.655Z,77.15
2019-02-18T00:49:14.360Z,77.21
2019-02-18T00:50:24.112Z,77.21
2019-02-18T00:51:34.058Z,77.15
2019-02-18T00:52:43.747Z,77.25
2019-02-18T00:53:53.478Z,77.53
2019-02-18T00:55:03.423Z,77.78
2019-02-18T00:56:13.108Z,77.5
2019-02-18T00:57:22.561Z,77.25
2019-02-18T00:58:32.242Z,77.73
2019-02-18T00:59:42.195Z,77.44
2019-02-18T01:00:51.883Z,77.44
2019-02-18T01:02:00.820Z,77.25
2019-02-18T01:03:10.782Z,77.69
2019-02-18T01:04:20.256Z,77.44
2019-02-18T01:05:29.969Z,77.34
2019-02-18T01:06:39.941Z,77.4
2019-02-18T01:07:49.698Z,77.4
2019-02-18T01:08:59.638Z,77.01
2019-02-18T01:10:09.337Z,77.69
2019-02-18T01:11:19.033Z,77.11
2019-02-18T01:12:28.735Z,77.11
2019-02-18T01:13:38.420Z,77.01
2019-02-18T01:14:54.387Z,77.11
2019-02-18T01:16:04.335Z,77.11
2019-02-18T01:17:14.055Z,77.01
2019-02-18T01:18:23.745Z,77.01
2019-02-18T01:19:33.701Z,77.21
2019-02-18T01:20:43.149Z,77.11
2019-02-18T01:21:52.598Z,77.11
2019-02-18T01:23:02.086Z,77.01
2019-02-18T01:24:11.795Z,77.01
2019-02-18T01:25:21.507Z,77.11
2019-02-18T01:26:30.960Z,77.11
2019-02-18T01:27:40.648Z,77.01
2019-02-18T01:28:50.350Z,77.21
2019-02-18T01:30:00.300Z,77.01
2019-02-18T01:31:09.747Z,76.82
2019-02-18T01:32:18.945Z,77.01
2019-02-18T01:33:28.954Z,77.59
2019-02-18T01:34:38.391Z,77.4
2019-02-18T01:35:48.080Z,77.5
2019-02-18T01:36:58.022Z,77.59
2019-02-18T01:38:08.018Z,77.78
2019-02-18T01:39:17.967Z,77.69
2019-02-18T01:40:27.930Z,77.78
2019-02-18T01:41:37.381Z,77.59
2019-02-18T01:42:46.915Z,77.69
2019-02-18T01:43:56.365Z,77.69
2019-02-18T01:45:06.054Z,77.69
2019-02-18T01:46:16.006Z,77.69
2019-02-18T01:47:25.960Z,77.59
2019-02-18T01:48:35.655Z,77.88
2019-02-18T01:49:45.347Z,77.78
2019-02-18T01:50:55.031Z,77.78
2019-02-18T01:52:04.466Z,77.59
2019-02-18T01:53:13.909Z,77.5
2019-02-18T01:54:23.856Z,77.59
2019-02-18T01:55:33.573Z,77.69
2019-02-18T01:56:43.274Z,77.5
2019-02-18T01:57:52.978Z,77.59
2019-02-18T01:59:02.682Z,77.88
2019-02-18T02:00:12.159Z,77.4
2019-02-18T02:01:21.852Z,77.21
2019-02-18T02:02:31.787Z,77.31
2019-02-18T02:03:41.488Z,77.4
2019-02-18T02:04:51.229Z,77.31
2019-02-18T02:06:00.922Z,77.5
2019-02-18T02:07:10.633Z,77.4
2019-02-18T02:08:20.068Z,77.4
2019-02-18T02:09:29.263Z,77.4
2019-02-18T02:10:38.707Z,77.11
2019-02-18T02:11:48.417Z,77.21
2019-02-18T02:12:58.112Z,77.21
2019-02-18T02:14:07.811Z,77.5
2019-02-18T02:15:17.251Z,77.11
2019-02-18T02:16:26.713Z,77.78
2019-02-18T02:17:36.664Z,77.59
2019-02-18T02:18:46.348Z,77.46
2019-02-18T02:19:56.041Z,77.59
2019-02-18T02:21:05.757Z,77.88
2019-02-18T02:22:15.479Z,77.5
2019-02-18T02:23:25.187Z,77.88
2019-02-18T02:24:34.642Z,77.5
2019-02-18T02:25:44.370Z,77.5
2019-02-18T02:26:54.068Z,77.88
2019-02-18T02:28:03.777Z,78.17
2019-02-18T02:29:13.727Z,77.4
2019-02-18T02:30:23.715Z,77.5
2019-02-18T02:31:33.685Z,77.69
2019-02-18T02:32:43.390Z,77.88
2019-02-18T02:33:53.382Z,77.59
2019-02-18T02:35:03.359Z,77.88
2019-02-18T02:36:13.329Z,77.59
2019-02-18T02:37:23.293Z,77.78
2019-02-18T02:38:32.747Z,77.69
2019-02-18T02:39:42.213Z,77.5
2019-02-18T02:40:52.174Z,77.59
2019-02-18T02:42:02.162Z,77.88
2019-02-18T02:43:11.854Z,78.03
2019-02-18T02:44:21.820Z,77.59
2019-02-18T02:45:31.521Z,78.27
2019-02-18T02:46:41.467Z,78.27
2019-02-18T02:47:51.170Z,77.56
2019-02-18T02:49:00.903Z,78.08
2019-02-18T02:50:10.132Z,77.78
2019-02-18T02:51:20.101Z,77.94
2019-02-18T02:52:29.568Z,77.88
2019-02-18T02:53:39.014Z,78.17
2019-02-18T02:54:48.703Z,78.03
2019-02-18T02:55:58.460Z,77.78
2019-02-18T02:57:07.926Z,78.03
2019-02-18T02:58:17.647Z,77.98
2019-02-18T02:59:27.585Z,78.03
2019-02-18T03:00:37.529Z,78.03
2019-02-18T03:01:47.252Z,78.08
2019-02-18T03:02:56.938Z,77.88
2019-02-18T03:04:06.627Z,78.03
2019-02-18T03:05:16.412Z,78.13
2019-02-18T03:06:26.117Z,78.03
2019-02-18T03:07:35.816Z,77.75
2019-02-18T03:08:45.271Z,77.65
2019-02-18T03:09:54.966Z,78.23
2019-02-18T03:11:04.406Z,78.23
2019-02-18T03:12:14.103Z,77.75
2019-02-18T03:13:24.085Z,77.36
2019-02-18T03:14:33.784Z,77.84
2019-02-18T03:15:43.490Z,77.65
2019-02-18T03:16:53.205Z,77.65
2019-02-18T03:18:02.685Z,77.56
2019-02-18T03:19:12.479Z,77.65
2019-02-18T03:20:22.438Z,77.75
2019-02-18T03:21:31.879Z,77.94
2019-02-18T03:22:41.335Z,77.46
2019-02-18T03:23:51.294Z,78.03
2019-02-18T03:25:00.997Z,78.03
2019-02-18T03:26:10.966Z,78.03
2019-02-18T03:27:20.930Z,78.13
2019-02-18T03:28:30.892Z,77.94
2019-02-18T03:29:40.612Z,77.94
2019-02-18T03:30:50.610Z,78.03
2019-02-18T03:32:00.777Z,77.84
2019-02-18T03:33:10.774Z,77.84
2019-02-18T03:34:20.821Z,78.13
2019-02-18T03:35:30.523Z,78.03
2019-02-18T03:36:40.546Z,77.84
2019-02-18T03:37:50.259Z,78.03
2019-02-18T03:38:59.710Z,78.03
2019-02-18T03:40:09.173Z,78.03
2019-02-18T03:41:18.883Z,77.84
2019-02-18T03:42:28.821Z,78.03
2019-02-18T03:43:38.513Z,77.94
2019-02-18T03:44:48.460Z,78.03
2019-02-18T03:45:58.156Z,77.84
2019-02-18T03:47:08.136Z,78.03
2019-02-18T03:48:18.197Z,78.03
2019-02-18T03:49:27.927Z,78.03
2019-02-18T03:50:37.898Z,78.23
2019-02-18T03:51:47.611Z,78.13
2019-02-18T03:52:57.559Z,77.84
2019-02-18T03:54:07.016Z,78.03
2019-02-18T03:55:16.209Z,77.94
2019-02-18T03:56:26.164Z,78.03
2019-02-18T03:57:35.856Z,78.03
2019-02-18T03:58:45.855Z,77.75
2019-02-18T03:59:55.288Z,78.03
2019-02-18T04:01:05.508Z,77.94
2019-02-18T04:02:15.199Z,77.94
2019-02-18T04:03:25.150Z,78.23
2019-02-18T04:04:35.118Z,78.03
2019-02-18T04:05:44.815Z,78.03
2019-02-18T04:06:54.793Z,78.03
2019-02-18T04:08:04.544Z,78.23
2019-02-18T04:09:13.982Z,78.03
2019-02-18T04:10:23.422Z,77.94
2019-02-18T04:11:33.463Z,78.23
2019-02-18T04:12:43.472Z,77.56
2019-02-18T04:13:53.191Z,78.23
2019-02-18T04:15:02.934Z,78.03
2019-02-18T04:16:12.634Z,77.75
2019-02-18T04:17:22.326Z,78.23
2019-02-18T04:18:31.779Z,77.84
2019-02-18T04:19:41.721Z,78.23
2019-02-18T04:20:51.227Z,78.03
2019-02-18T04:22:00.698Z,78.13
2019-02-18T04:23:10.692Z,77.94
2019-02-18T04:24:20.203Z,78.03
2019-02-18T04:25:29.895Z,77.94
2019-02-18T04:26:39.078Z,78.03
2019-02-18T04:27:49.047Z,77.94
2019-02-18T04:28:58.995Z,78.03
2019-02-18T04:30:08.940Z,78.23
2019-02-18T04:31:21.287Z,77.94
2019-02-18T04:32:31.243Z,78.23
2019-02-18T04:33:40.930Z,78.23
2019-02-18T04:34:50.873Z,78.03
2019-02-18T04:36:00.053Z,78.03
2019-02-18T04:37:10.026Z,78.03
2019-02-18T04:38:19.736Z,77.75
2019-02-18T04:39:29.680Z,78.03
2019-02-18T04:40:39.623Z,77.94
2019-02-18T04:41:49.127Z,78.03
2019-02-18T04:42:59.074Z,77.94
2019-02-18T04:44:08.767Z,78.03
2019-02-18T04:45:18.481Z,77.75
2019-02-18T04:46:28.447Z,78.13
2019-02-18T04:47:38.142Z,77.94
2019-02-18T04:48:48.093Z,78.03
2019-02-18T04:49:57.549Z,77.65
2019-02-18T04:51:07.253Z,78.03
2019-02-18T04:52:17.191Z,77.94
2019-02-18T04:53:27.184Z,78.23
2019-02-18T04:54:36.900Z,78.03
2019-02-18T04:55:46.599Z,78.03
2019-02-18T04:56:56.113Z,78.23
2019-02-18T04:58:08.708Z,78.23
2019-02-18T04:59:18.432Z,77.65
2019-02-18T05:00:27.874Z,77.36
2019-02-18T05:01:37.824Z,77.56
2019-02-18T05:02:47.777Z,77.36
2019-02-18T05:03:57.734Z,77.65
2019-02-18T05:05:07.181Z,77.26
2019-02-18T05:06:17.155Z,77.36
2019-02-18T05:07:28.485Z,77.26
2019-02-18T05:08:37.953Z,77.26
2019-02-18T05:09:47.668Z,77.26
2019-02-18T05:10:57.111Z,77.36
2019-02-18T05:12:07.059Z,77.36
2019-02-18T05:13:17.002Z,77.75
2019-02-18T05:14:26.724Z,77.26
2019-02-18T05:15:36.167Z,77.26
2019-02-18T05:16:47.946Z,77.17
2019-02-18T05:17:57.895Z,77.56
2019-02-18T05:19:07.589Z,77.46
2019-02-18T05:20:17.290Z,77.56
2019-02-18T05:21:27.245Z,77.36
2019-02-18T05:22:37.188Z,76.98
2019-02-18T05:23:47.136Z,77.17
2019-02-18T05:24:56.829Z,77.17
2019-02-18T05:26:06.285Z,77.17
2019-02-18T05:27:15.991Z,77.17
2019-02-18T05:28:36.154Z,76.59
2019-02-18T05:29:45.889Z,76.69
2019-02-18T05:30:55.634Z,76.5
2019-02-18T05:32:05.354Z,76.69
2019-02-18T05:33:15.305Z,77.17
2019-02-18T05:34:25.274Z,74.48
2019-02-18T05:35:34.728Z,70.99
2019-02-18T05:36:44.429Z,70.32
2019-02-18T05:37:54.393Z,72.91
2019-02-18T05:39:04.354Z,74.26
2019-02-18T05:40:24.925Z,74.64
2019-02-18T05:41:34.935Z,74.73
2019-02-18T05:42:44.161Z,74.06
2019-02-18T05:43:54.102Z,74.64
2019-02-18T05:45:03.804Z,74.83
2019-02-18T05:46:13.859Z,74.64
2019-02-18T05:47:23.888Z,74.64
2019-02-18T05:48:36.433Z,74.44
2019-02-18T05:49:46.540Z,73.97
2019-02-18T05:50:56.530Z,74.54
2019-02-18T05:52:06.553Z,74.54
2019-02-18T05:53:16.504Z,74.16
2019-02-18T05:54:26.465Z,73.97
2019-02-18T05:55:36.156Z,74.26
2019-02-18T05:56:46.099Z,74.64
2019-02-18T05:57:55.566Z,74.83
2019-02-18T05:59:05.546Z,74.83
2019-02-18T06:00:14.992Z,74.44
2019-02-18T06:01:24.937Z,74.44
2019-02-18T06:02:34.643Z,74.83
2019-02-18T06:03:44.103Z,75.02
2019-02-18T06:04:53.619Z,75.31
2019-02-18T06:06:03.591Z,75.5
2019-02-18T06:07:13.295Z,75.5
2019-02-18T06:08:23.014Z,74.93
2019-02-18T06:09:32.858Z,74.93
2019-02-18T06:10:42.849Z,74.64
2019-02-18T06:11:52.581Z,74.26
2019-02-18T06:13:02.026Z,73.97
2019-02-18T06:14:11.730Z,74.54
2019-02-18T06:15:21.690Z,74.16
2019-02-18T06:16:31.407Z,74.73
2019-02-18T06:17:41.101Z,74.77
2019-02-18T06:18:50.865Z,75.15
2019-02-18T06:20:00.822Z,75.63
2019-02-18T06:21:10.512Z,75.25
2019-02-18T06:22:19.958Z,75.15
2019-02-18T06:23:29.648Z,74.93
2019-02-18T06:24:39.357Z,74.48
2019-02-18T06:25:49.057Z,74.64
2019-02-18T06:26:59.011Z,74.16
2019-02-18T06:28:08.722Z,74.35
2019-02-18T06:29:18.180Z,74.26
2019-02-18T06:30:27.672Z,73.97
2019-02-18T06:31:37.374Z,73.68
2019-02-18T06:32:47.086Z,74.64
2019-02-18T06:33:57.025Z,73.97
2019-02-18T06:35:06.970Z,74.54
2019-02-18T06:36:16.920Z,74.16
2019-02-18T06:37:29.127Z,73.77
2019-02-18T06:38:38.902Z,74.06
2019-02-18T06:39:48.620Z,74.16
2019-02-18T06:40:58.312Z,73.87
2019-02-18T06:42:08.263Z,73.87
2019-02-18T06:43:18.714Z,73.49
2019-02-18T06:44:28.166Z,73.97
2019-02-18T06:45:38.117Z,74.06
2019-02-18T06:46:48.074Z,74.64
2019-02-18T06:47:57.267Z,74.26
2019-02-18T06:49:07.215Z,74.06
2019-02-18T06:50:17.162Z,73.97
2019-02-18T06:51:26.852Z,73.97
2019-02-18T06:52:36.046Z,73.49
2019-02-18T06:53:46.004Z,73.3
2019-02-18T06:54:55.454Z,72.81
2019-02-18T06:56:05.522Z,72.81
2019-02-18T06:57:14.971Z,73.1
2019-02-18T06:58:24.453Z,72.91
2019-02-18T06:59:34.144Z,73.1
2019-02-18T07:00:44.113Z,72.81
2019-02-18T07:01:54.088Z,72.72
2019-02-18T07:03:03.804Z,72.72
2019-02-18T07:04:13.255Z,72.81
2019-02-18T07:05:22.978Z,72.63
2019-02-18T07:06:32.924Z,72.72
2019-02-18T07:07:42.867Z,72.72
2019-02-18T07:08:52.563Z,72.81
2019-02-18T07:10:03.811Z,72.63
2019-02-18T07:11:13.516Z,72.63
2019-02-18T07:12:23.001Z,72.72
2019-02-18T07:13:32.825Z,72.72
2019-02-18T07:14:42.275Z,72.05
2019-02-18T07:15:51.991Z,72.33
2019-02-18T07:17:01.432Z,72.05
2019-02-18T07:18:13.382Z,72.33
2019-02-18T07:19:23.061Z,72.53
2019-02-18T07:20:32.518Z,72.63
2019-02-18T07:21:42.466Z,72.33
2019-02-18T07:22:52.519Z,72.33
2019-02-18T07:24:02.243Z,71.86
2019-02-18T07:25:11.947Z,71.86
2019-02-18T07:26:21.648Z,72.05
2019-02-18T07:27:31.116Z,71.86
2019-02-18T07:28:40.566Z,71.86
2019-02-18T07:29:50.012Z,72.05
2019-02-18T07:30:59.726Z,72.05
2019-02-18T07:32:09.669Z,71.66
2019-02-18T07:33:19.727Z,71.95
2019-02-18T07:34:29.436Z,71.95
2019-02-18T07:35:39.128Z,72.05
2019-02-18T07:36:48.830Z,72.05
2019-02-18T07:37:58.061Z,72.43
2019-02-18T07:39:07.797Z,72.81
2019-02-18T07:40:17.751Z,72.63
2019-02-18T07:41:27.715Z,72.63
2019-02-18T07:42:36.900Z,71.76
2019-02-18T07:43:46.836Z,71.98
2019-02-18T07:44:56.657Z,72.14
2019-02-18T07:46:06.395Z,71.95
2019-02-18T07:47:15.826Z,71.95
2019-02-18T07:48:25.018Z,71.57
2019-02-18T07:49:34.473Z,71.66
2019-02-18T07:50:43.928Z,71.98
2019-02-18T07:51:53.398Z,72.05
2019-02-18T07:53:02.862Z,71.89
2019-02-18T07:54:12.928Z,71.86
2019-02-18T07:55:22.679Z,71.95
2019-02-18T07:56:32.657Z,71.61
2019-02-18T07:57:41.848Z,71.7
2019-02-18T07:58:51.794Z,71.57
2019-02-18T08:00:01.246Z,71.37
2019-02-18T08:01:10.949Z,71.41
2019-02-18T08:02:20.652Z,71.41
2019-02-18T08:03:30.636Z,71.41
2019-02-18T08:04:40.585Z,71.28
2019-02-18T08:05:50.295Z,71.61
2019-02-18T08:07:00.012Z,71.31
2019-02-18T08:08:09.977Z,71.22
2019-02-18T08:09:19.925Z,71.31
2019-02-18T08:10:29.885Z,71.22
2019-02-18T08:11:39.860Z,71.28
2019-02-18T08:12:49.070Z,71.41
2019-02-18T08:13:59.019Z,71.41
2019-02-18T08:15:08.727Z,71.31
2019-02-18T08:16:18.424Z,71.31
2019-02-18T08:17:28.384Z,71.22
2019-02-18T08:18:38.323Z,71.12
2019-02-18T08:19:48.272Z,71.12
2019-02-18T08:20:58.028Z,71.22
2019-02-18T08:22:07.739Z,71.22
2019-02-18T08:23:17.443Z,71.31
2019-02-18T08:24:27.137Z,71.22
2019-02-18T08:25:37.102Z,71.09
2019-02-18T08:26:46.696Z,70.93
2019-02-18T08:27:55.916Z,70.93
2019-02-18T08:29:05.637Z,71.03
2019-02-18T08:30:15.572Z,70.93
2019-02-18T08:31:25.302Z,70.74
2019-02-18T08:32:35.245Z,70.93
2019-02-18T08:33:44.967Z,70.84
2019-02-18T08:34:54.411Z,70.84
2019-02-18T08:36:04.360Z,70.84
2019-02-18T08:37:14.338Z,70.84
2019-02-18T08:38:24.040Z,70.93
2019-02-18T08:39:33.993Z,70.93
2019-02-18T08:40:43.431Z,70.93
2019-02-18T08:41:53.146Z,70.74
2019-02-18T08:43:03.121Z,70.93
2019-02-18T08:44:12.810Z,70.74
2019-02-18T08:45:22.338Z,70.64
2019-02-18T08:46:32.056Z,70.84
2019-02-18T08:47:41.756Z,70.84
2019-02-18T08:48:51.449Z,70.64
2019-02-18T08:50:01.144Z,71.03
2019-02-18T08:51:10.853Z,71.03
2019-02-18T08:52:20.564Z,71.03
2019-02-18T08:53:30.269Z,70.93
2019-02-18T08:54:39.967Z,70.55
2019-02-18T08:55:59.217Z,70.93
2019-02-18T08:57:08.923Z,70.84
2019-02-18T08:58:18.630Z,70.74
2019-02-18T08:59:28.606Z,70.74
2019-02-18T09:00:38.294Z,70.64
2019-02-18T09:01:48.046Z,70.45
2019-02-18T09:02:57.494Z,70.45
2019-02-18T09:04:07.262Z,70.64
2019-02-18T09:05:17.379Z,70.84
2019-02-18T09:06:27.596Z,70.84
2019-02-18T09:07:37.569Z,70.74
2019-02-18T09:08:47.026Z,70.26
2019-02-18T09:09:56.728Z,70.74
2019-02-18T09:11:06.169Z,70.36
2019-02-18T09:12:16.130Z,70.74
2019-02-18T09:13:25.606Z,70.93
2019-02-18T09:14:35.344Z,70.74
2019-02-18T09:15:44.538Z,70.64
2019-02-18T09:17:05.011Z,70.36
2019-02-18T09:18:14.471Z,70.36
2019-02-18T09:19:23.661Z,70.74
2019-02-18T09:20:33.357Z,70.74
2019-02-18T09:21:42.817Z,70.93
2019-02-18T09:22:52.307Z,70.74
2019-02-18T09:24:01.834Z,71.03
2019-02-18T09:25:11.598Z,70.36
2019-02-18T09:26:21.310Z,70.45
2019-02-18T09:27:31.042Z,70.26
2019-02-18T09:28:41.067Z,70.26
2019-02-18T09:29:50.572Z,70.36
2019-02-18T09:30:59.845Z,71.22
2019-02-18T09:32:09.544Z,70.26
2019-02-18T09:33:19.299Z,70.36
2019-02-18T09:34:29.263Z,70.64
2019-02-18T09:35:38.984Z,70.36
2019-02-18T09:36:48.442Z,70.93
2019-02-18T09:37:58.853Z,71.12
2019-02-18T09:39:08.851Z,70.84
2019-02-18T09:40:18.587Z,70.36
2019-02-18T09:41:28.649Z,70.55
2019-02-18T09:42:38.426Z,70.45
2019-02-18T09:43:48.129Z,71.12
2019-02-18T09:44:58.070Z,70.36
2019-02-18T09:46:07.820Z,70.55
2019-02-18T09:47:17.522Z,70.45
2019-02-18T09:48:26.958Z,70.84
2019-02-18T09:49:36.654Z,70.36
2019-02-18T09:50:46.619Z,71.03
2019-02-18T09:51:56.335Z,70.55
2019-02-18T09:53:06.047Z,70.55
2019-02-18T09:54:16.002Z,70.45
2019-02-18T09:55:25.966Z,70.55
2019-02-18T09:56:36.948Z,70.26
2019-02-18T09:57:46.793Z,70.74
2019-02-18T09:58:56.267Z,70.36
2019-02-18T10:00:06.679Z,70.55
2019-02-18T10:01:16.629Z,70.26
2019-02-18T10:02:26.353Z,70.45
2019-02-18T10:03:36.046Z,70.36
2019-02-18T10:04:45.745Z,70.36
2019-02-18T10:05:55.446Z,70.36
2019-02-18T10:07:05.466Z,71.12
2019-02-18T10:08:15.433Z,70.84
2019-02-18T10:09:24.975Z,70.93
2019-02-18T10:10:34.198Z,70.26
2019-02-18T10:11:43.942Z,71.12
2019-02-18T10:12:53.407Z,70.36
2019-02-18T10:14:04.483Z,70.36
2019-02-18T10:15:14.431Z,70.45
2019-02-18T10:16:24.378Z,70.45
2019-02-18T10:17:33.588Z,70.93
2019-02-18T10:18:43.311Z,70.36
2019-02-18T10:19:52.778Z,70.45
2019-02-18T10:21:02.268Z,70.26
2019-02-18T10:22:11.725Z,70.36
2019-02-18T10:23:21.680Z,71.03
2019-02-18T10:24:31.134Z,70.36
2019-02-18T10:25:41.088Z,71.03
2019-02-18T10:26:51.034Z,70.45
2019-02-18T10:28:00.739Z,70.36
2019-02-18T10:29:10.195Z,70.26
2019-02-18T10:30:23.101Z,70.55
2019-02-18T10:31:33.045Z,71.22
2019-02-18T10:32:42.512Z,71.03
2019-02-18T10:33:52.474Z,70.36
2019-02-18T10:35:01.926Z,71.03
2019-02-18T10:36:11.706Z,70.84
2019-02-18T10:37:21.666Z,70.45
2019-02-18T10:38:30.875Z,70.93
2019-02-18T10:39:42.561Z,70.49
2019-02-18T10:40:52.266Z,70.36
2019-02-18T10:42:12.254Z,70.84
2019-02-18T10:43:30.118Z,70.26
2019-02-18T10:44:41.964Z,70.45
2019-02-18T10:45:52.048Z,71.06
2019-02-18T10:47:02.616Z,71.16
2019-02-18T10:48:13.142Z,70.93
2019-02-18T10:49:25.809Z,70.55
2019-02-18T10:50:36.041Z,70.49
2019-02-18T10:51:46.296Z,70.36
2019-02-18T10:52:56.300Z,70.49
2019-02-18T10:54:06.349Z,70.87
2019-02-18T10:55:15.688Z,70.49
2019-02-18T10:56:25.693Z,70.45
2019-02-18T10:57:35.230Z,70.49
2019-02-18T10:58:45.217Z,70.87
2019-02-18T10:59:54.944Z,70.39
2019-02-18T11:01:06.246Z,70.58
2019-02-18T11:02:16.234Z,70.87
2019-02-18T11:03:25.767Z,70.87
2019-02-18T11:04:35.548Z,70.78
2019-02-18T11:05:45.556Z,71.06
2019-02-18T11:06:55.525Z,70.87
2019-02-18T11:08:05.249Z,70.78
2019-02-18T11:09:15.206Z,70.87
2019-02-18T11:10:24.662Z,70.39
2019-02-18T11:11:34.163Z,70.58
2019-02-18T11:12:43.624Z,70.39
2019-02-18T11:13:54.853Z,71.06
2019-02-18T11:15:04.839Z,71.06
2019-02-18T11:16:14.567Z,70.39
2019-02-18T11:17:24.415Z,70.68
2019-02-18T11:18:44.213Z,70.49
2019-02-18T11:19:54.388Z,70.87
2019-02-18T11:21:04.562Z,70.58
2019-02-18T11:22:13.805Z,70.68
2019-02-18T11:23:23.535Z,70.39
2019-02-18T11:24:33.271Z,70.49
2019-02-18T11:25:43.083Z,70.49
2019-02-18T11:26:53.058Z,70.49
2019-02-18T11:28:02.788Z,70.49
2019-02-18T11:29:12.285Z,70.49
2019-02-18T11:30:22.273Z,70.49
2019-02-18T11:31:32.284Z,70.39
2019-02-18T11:32:42.003Z,70.87
2019-02-18T11:33:51.977Z,70.97
2019-02-18T11:35:03.100Z,70.39
2019-02-18T11:36:13.086Z,71.16
2019-02-18T11:37:23.103Z,71.16
2019-02-18T11:38:32.835Z,70.49
2019-02-18T11:39:42.560Z,71.25
2019-02-18T11:40:52.354Z,71.16
2019-02-18T11:42:01.821Z,70.49
2019-02-18T11:43:11.318Z,71.16
2019-02-18T11:44:20.578Z,71.16
2019-02-18T11:45:30.547Z,70.97
2019-02-18T11:46:42.498Z,70.58
2019-02-18T11:47:51.715Z,70.39
2019-02-18T11:49:01.729Z,71.06
2019-02-18T11:50:11.485Z,70.58
2019-02-18T11:51:21.536Z,70.29
2019-02-18T11:52:31.258Z,70.78
2019-02-18T11:53:41.234Z,70.87
2019-02-18T11:54:51.229Z,71.06
2019-02-18T11:56:00.958Z,70.39
2019-02-18T11:57:10.922Z,70.78
2019-02-18T11:58:20.904Z,70.58
2019-02-18T11:59:30.642Z,70.39
2019-02-18T12:00:40.420Z,71.06
2019-02-18T12:01:49.929Z,70.78
2019-02-18T12:03:12.188Z,70.78
2019-02-18T12:04:23.182Z,70.78
2019-02-18T12:05:33.760Z,70.78
2019-02-18T12:06:47.105Z,70.87
2019-02-18T12:07:57.106Z,70.58
2019-02-18T12:09:06.801Z,70.97
2019-02-18T12:10:16.585Z,71.06
2019-02-18T12:11:26.530Z,70.87
2019-02-18T12:12:45.665Z,70.87
2019-02-18T12:13:55.177Z,71
2019-02-18T12:15:05.191Z,70.9
2019-02-18T12:16:14.989Z,70.87
2019-02-18T12:17:24.303Z,71
2019-02-18T12:18:34.295Z,70.9
2019-02-18T12:19:44.282Z,70.87
2019-02-18T12:20:54.073Z,70.72
2019-02-18T12:22:04.420Z,70.72
2019-02-18T12:23:14.762Z,71
2019-02-18T12:24:24.264Z,70.72
2019-02-18T12:25:34.227Z,70.72
2019-02-18T12:26:44.245Z,70.68
2019-02-18T12:27:53.759Z,70.9
2019-02-18T12:29:04.029Z,71
2019-02-18T12:30:13.600Z,70.9
2019-02-18T12:31:23.364Z,70.9
2019-02-18T12:32:32.882Z,70.9
2019-02-18T12:33:42.884Z,71.1
2019-02-18T12:34:54.943Z,71
2019-02-18T12:36:04.677Z,71
2019-02-18T12:37:14.156Z,71
2019-02-18T12:38:23.370Z,70.81
2019-02-18T12:39:33.349Z,71.19
2019-02-18T12:40:43.340Z,71.1
2019-02-18T12:41:52.864Z,70.81
2019-02-18T12:43:02.835Z,70.72
2019-02-18T12:44:12.342Z,71
2019-02-18T12:45:21.863Z,70.9
2019-02-18T12:46:31.124Z,71.1
2019-02-18T12:47:40.863Z,71
2019-02-18T12:48:50.744Z,70.9
2019-02-18T12:50:00.597Z,71
2019-02-18T12:51:10.149Z,70.81
2019-02-18T12:52:19.987Z,71.29
2019-02-18T12:53:30.062Z,71.19
2019-02-18T12:54:39.702Z,71.48
2019-02-18T12:55:49.575Z,71.39
2019-02-18T12:56:59.424Z,71.67
2019-02-18T12:58:09.246Z,71.48
2019-02-18T12:59:18.828Z,71.67
2019-02-18T13:00:31.730Z,71.58
2019-02-18T13:01:41.568Z,71.87
2019-02-18T13:02:50.851Z,71.96
2019-02-18T13:04:00.659Z,71.48
2019-02-18T13:05:09.949Z,71.58
2019-02-18T13:06:19.274Z,71.48
2019-02-18T13:07:29.086Z,71.39
2019-02-18T13:08:38.630Z,71.29
2019-02-18T13:09:48.456Z,71.67
2019-02-18T13:10:58.014Z,71.39
2019-02-18T13:12:08.083Z,71.58
2019-02-18T13:13:18.129Z,71.48
2019-02-18T13:14:27.984Z,71.67
2019-02-18T13:15:37.901Z,71.67
2019-02-18T13:16:47.193Z,71.67
2019-02-18T13:17:57.234Z,71.67
2019-02-18T13:19:07.499Z,72.06
2019-02-18T13:20:19.363Z,71.96
2019-02-18T13:21:29.209Z,71.96
2019-02-18T13:22:38.754Z,71.77
2019-02-18T13:23:48.801Z,71.96
2019-02-18T13:24:58.564Z,71.96
2019-02-18T13:26:08.358Z,71.71
2019-02-18T13:27:17.866Z,72.16
2019-02-18T13:28:27.622Z,72.16
2019-02-18T13:29:37.172Z,72.38
2019-02-18T13:30:46.937Z,72.58
2019-02-18T13:31:56.959Z,72.29
2019-02-18T13:33:06.748Z,72.58
2019-02-18T13:34:16.801Z,72.58
2019-02-18T13:35:26.886Z,72.58
2019-02-18T13:36:36.648Z,72.77
2019-02-18T13:37:46.391Z,72.86
2019-02-18T13:38:55.900Z,72.86
2019-02-18T13:40:05.911Z,72.48
2019-02-18T13:41:15.781Z,72.67
2019-02-18T13:42:25.648Z,72.09
2019-02-18T13:43:35.490Z,72.48
2019-02-18T13:44:45.876Z,71.91
2019-02-18T13:45:56.324Z,72.58
2019-02-18T13:47:06.919Z,72.67
2019-02-18T13:48:17.834Z,72.67
2019-02-18T13:49:27.646Z,72.48
2019-02-18T13:50:38.451Z,72.67
2019-02-18T13:51:56.156Z,72.67
2019-02-18T13:53:06.369Z,72.58
2019-02-18T13:54:16.352Z,72.67
2019-02-18T13:55:26.380Z,72.67
2019-02-18T13:56:35.918Z,72.48
2019-02-18T13:57:45.466Z,72.09
2019-02-18T13:58:55.277Z,71.91
2019-02-18T14:00:05.285Z,72.67
2019-02-18T14:01:14.813Z,72.77
2019-02-18T14:02:24.079Z,72.29
2019-02-18T14:03:33.849Z,72.19
2019-02-18T14:04:43.619Z,72.09
2019-02-18T14:05:53.616Z,72.77
2019-02-18T14:07:03.615Z,72.09
2019-02-18T14:08:13.109Z,72.48
2019-02-18T14:09:22.599Z,72.09
2019-02-18T14:10:32.365Z,72.23
2019-02-18T14:11:42.162Z,72.32
2019-02-18T14:12:51.660Z,72
2019-02-18T14:14:02.578Z,71.71
2019-02-18T14:15:12.404Z,71.81
2019-02-18T14:16:22.166Z,71.91
2019-02-18T14:17:31.898Z,72.23
2019-02-18T14:18:41.394Z,72.03
2019-02-18T14:19:51.390Z,71.75
2019-02-18T14:21:01.189Z,72.03
2019-02-18T14:22:11.185Z,72.23
2019-02-18T14:23:21.223Z,72.03
2019-02-18T14:24:30.954Z,71.94
2019-02-18T14:25:40.709Z,72.32
2019-02-18T14:26:50.466Z,72.03
2019-02-18T14:28:00.469Z,72.03
2019-02-18T14:29:10.477Z,71.94
2019-02-18T14:30:20.238Z,72.13
2019-02-18T14:31:30.233Z,72.13
2019-02-18T14:32:39.730Z,72.32
2019-02-18T14:33:49.487Z,72.13
2019-02-18T14:34:59.239Z,71.94
2019-02-18T14:36:08.471Z,71.84
2019-02-18T14:37:18.213Z,71.94
2019-02-18T14:38:27.967Z,71.55
2019-02-18T14:39:37.213Z,71.46
2019-02-18T14:40:46.977Z,71.26
2019-02-18T14:41:56.961Z,71.26
2019-02-18T14:43:06.206Z,71.46
2019-02-18T14:44:16.174Z,71.46
2019-02-18T14:45:25.926Z,71.08
2019-02-18T14:46:35.421Z,70.98
2019-02-18T14:47:45.413Z,71.75
2019-02-18T14:48:54.933Z,71.17
2019-02-18T14:50:06.161Z,71.08
2019-02-18T14:51:16.030Z,71.17
2019-02-18T14:52:25.834Z,71.17
2019-02-18T14:53:35.653Z,70.88
2019-02-18T14:54:45.727Z,70.88
2019-02-18T14:55:55.797Z,70.88
2019-02-18T14:57:06.219Z,70.88
2019-02-18T14:58:16.968Z,70.98
2019-02-18T14:59:27.310Z,71.01
2019-02-18T15:00:38.015Z,71.08
2019-02-18T15:01:48.690Z,71.17
2019-02-18T15:02:59.384Z,71.17
2019-02-18T15:04:09.675Z,71.26